createdAt,value
2017-04-15T00:00:23.454Z,76.44
2017-04-15T00:01:24.684Z,76.63
2017-04-15T00:02:25.954Z,76.25
2017-04-15T00:03:27.224Z,76.82
2017-04-15T00:04:28.447Z,76.63
2017-04-15T00:05:29.686Z,76.63
2017-04-15T00:06:30.919Z,76.73
2017-04-15T00:07:32.235Z,76.25
2017-04-15T00:08:33.485Z,76.06
2017-04-15T00:09:34.786Z,76.06
2017-04-15T00:10:36.051Z,76.25
2017-04-15T00:11:37.286Z,76.06
2017-04-15T00:12:38.535Z,76.44
2017-04-15T00:13:39.798Z,76.25
2017-04-15T00:14:41.101Z,75.78
2017-04-15T00:15:42.364Z,75.87
2017-04-15T00:16:43.751Z,75.78
2017-04-15T00:17:44.983Z,75.59
2017-04-15T00:18:46.221Z,76.06
2017-04-15T00:19:47.469Z,76.06
2017-04-15T00:20:48.831Z,76.06
2017-04-15T00:21:50.127Z,75.87
2017-04-15T00:22:51.367Z,75.96
2017-04-15T00:23:52.615Z,75.96
2017-04-15T00:24:53.838Z,75.96
2017-04-15T00:25:55.075Z,75.96
2017-04-15T00:26:56.438Z,76.25
2017-04-15T00:27:57.677Z,76.25
2017-04-15T00:28:58.911Z,76.35
2017-04-15T00:30:00.151Z,76.16
2017-04-15T00:31:01.402Z,76.16
2017-04-15T00:32:02.687Z,76.16
2017-04-15T00:33:03.972Z,76.06
2017-04-15T00:34:05.211Z,76.01
2017-04-15T00:35:06.470Z,75.87
2017-04-15T00:36:07.705Z,76.1
2017-04-15T00:37:09.062Z,76.06
2017-04-15T00:38:10.372Z,76.1
2017-04-15T00:39:11.846Z,76.2
2017-04-15T00:40:13.101Z,76.2
2017-04-15T00:41:14.331Z,76.2
2017-04-15T00:42:15.682Z,76.25
2017-04-15T00:43:16.990Z,76.48
2017-04-15T00:44:18.228Z,76.2
2017-04-15T00:45:19.598Z,76.25
2017-04-15T00:46:20.835Z,76.2
2017-04-15T00:47:22.070Z,76.39
2017-04-15T00:48:23.296Z,76.54
2017-04-15T00:49:24.735Z,76.01
2017-04-15T00:50:25.956Z,76.35
2017-04-15T00:51:27.192Z,75.96
2017-04-15T00:52:28.436Z,76.29
2017-04-15T00:53:29.691Z,76.39
2017-04-15T00:54:30.903Z,76.2
2017-04-15T00:55:32.207Z,75.91
2017-04-15T00:56:33.558Z,76.39
2017-04-15T00:57:34.794Z,76.1
2017-04-15T00:58:36.029Z,76.01
2017-04-15T00:59:37.266Z,76.39
2017-04-15T01:00:38.558Z,76.39
2017-04-15T01:01:39.793Z,76.2
2017-04-15T01:02:41.045Z,76.2
2017-04-15T01:03:42.302Z,76.48
2017-04-15T01:04:43.586Z,76.01
2017-04-15T01:05:44.823Z,76.48
2017-04-15T01:06:46.062Z,76.2
2017-04-15T01:07:47.300Z,76.01
2017-04-15T01:08:48.642Z,75.81
2017-04-15T01:09:49.889Z,76.29
2017-04-15T01:10:51.128Z,75.91
2017-04-15T01:11:52.379Z,75.53
2017-04-15T01:12:53.616Z,75.43
2017-04-15T01:13:54.891Z,75.43
2017-04-15T01:14:56.134Z,75.24
2017-04-15T01:15:57.355Z,75.72
2017-04-15T01:16:58.657Z,75.34
2017-04-15T01:17:59.933Z,75.34
2017-04-15T01:19:01.169Z,75.34
2017-04-15T01:20:02.417Z,75.43
2017-04-15T01:21:03.680Z,75.43
2017-04-15T01:22:04.905Z,75.34
2017-04-15T01:23:06.258Z,75.53
2017-04-15T01:24:07.500Z,75.34
2017-04-15T01:25:08.756Z,75.15
2017-04-15T01:26:10.003Z,75.43
2017-04-15T01:27:11.214Z,75.15
2017-04-15T01:28:12.491Z,75.24
2017-04-15T01:29:13.749Z,75.15
2017-04-15T01:30:15.010Z,75.24
2017-04-15T01:31:16.209Z,75.34
2017-04-15T01:32:17.464Z,75.05
2017-04-15T01:33:18.726Z,75.24
2017-04-15T01:34:19.973Z,75.43
2017-04-15T01:35:21.204Z,75.24
2017-04-15T01:36:22.519Z,75.43
2017-04-15T01:37:23.764Z,75.34
2017-04-15T01:38:25.056Z,75.43
2017-04-15T01:39:26.351Z,75.43
2017-04-15T01:40:27.583Z,75.43
2017-04-15T01:41:28.839Z,75.62
2017-04-15T01:42:30.152Z,75.43
2017-04-15T01:43:31.423Z,75.62
2017-04-15T01:44:32.662Z,75.24
2017-04-15T01:45:33.903Z,75.53
2017-04-15T01:46:35.128Z,75.81
2017-04-15T01:47:36.377Z,75.24
2017-04-15T01:48:37.634Z,75.43
2017-04-15T01:49:38.865Z,75.34
2017-04-15T01:50:40.098Z,75.43
2017-04-15T01:51:41.335Z,75.43
2017-04-15T01:52:42.584Z,75.43
2017-04-15T01:53:43.835Z,75.43
2017-04-15T01:54:45.078Z,75.62
2017-04-15T01:55:46.351Z,75.91
2017-04-15T01:56:47.588Z,76.01
2017-04-15T01:57:48.847Z,75.72
2017-04-15T01:58:50.180Z,75.53
2017-04-15T01:59:51.440Z,76.2
2017-04-15T02:00:52.725Z,76.01
2017-04-15T02:01:53.989Z,76.1
2017-04-15T02:02:55.295Z,76.48
2017-04-15T02:03:56.532Z,76.1
2017-04-15T02:04:57.768Z,76.29
2017-04-15T02:05:59.013Z,76.1
2017-04-15T02:07:00.271Z,76.1
2017-04-15T02:08:01.529Z,76.76
2017-04-15T02:09:02.880Z,76.76
2017-04-15T02:10:04.118Z,76.39
2017-04-15T02:11:05.397Z,76.86
2017-04-15T02:12:06.636Z,77.05
2017-04-15T02:13:08.039Z,77.24
2017-04-15T02:14:09.157Z,77.15
2017-04-15T02:15:10.411Z,77.05
2017-04-15T02:16:11.740Z,77.05
2017-04-15T02:17:12.973Z,77.43
2017-04-15T02:18:14.217Z,76.96
2017-04-15T02:19:15.455Z,77.15
2017-04-15T02:20:16.730Z,77.05
2017-04-15T02:21:17.981Z,77.05
2017-04-15T02:22:19.234Z,77.43
2017-04-15T02:23:20.495Z,77.62
2017-04-15T02:24:21.734Z,78
2017-04-15T02:25:22.986Z,78.38
2017-04-15T02:26:24.254Z,78.67
2017-04-15T02:27:25.546Z,78.77
2017-04-15T02:28:26.734Z,79.05
2017-04-15T02:29:27.973Z,78.96
2017-04-15T02:30:29.204Z,78.96
2017-04-15T02:31:30.463Z,79.24
2017-04-15T02:32:31.704Z,80.19
2017-04-15T02:33:32.989Z,80.38
2017-04-15T02:34:34.232Z,80.38
2017-04-15T02:35:35.477Z,80.57
2017-04-15T02:36:36.710Z,80.76
2017-04-15T02:37:37.954Z,81.14
2017-04-15T02:38:39.199Z,81.24
2017-04-15T02:39:40.544Z,81.24
2017-04-15T02:40:41.775Z,81.52
2017-04-15T02:41:43.015Z,82.09
2017-04-15T02:42:44.283Z,82.28
2017-04-15T02:43:45.489Z,82.95
2017-04-15T02:44:46.744Z,82.95
2017-04-15T02:45:48.052Z,82.86
2017-04-15T02:46:49.287Z,83.04
2017-04-15T02:47:50.606Z,83.62
2017-04-15T02:48:51.838Z,83.71
2017-04-15T02:49:53.075Z,83.62
2017-04-15T02:50:54.337Z,84.28
2017-04-15T02:51:55.546Z,84.28
2017-04-15T02:52:56.783Z,84.85
2017-04-15T02:53:58.034Z,84.76
2017-04-15T02:54:59.274Z,84.76
2017-04-15T02:56:00.512Z,85.42
2017-04-15T02:57:01.753Z,85.8
2017-04-15T02:58:03.005Z,85.61
2017-04-15T02:59:04.373Z,85.52
2017-04-15T03:00:05.690Z,85.99
2017-04-15T03:01:06.931Z,86.47
2017-04-15T03:02:08.174Z,86.94
2017-04-15T03:03:09.405Z,86.85
2017-04-15T03:04:10.766Z,87.71
2017-04-15T03:05:12.017Z,87.23
2017-04-15T03:06:13.384Z,87.8
2017-04-15T03:07:14.639Z,88.04
2017-04-15T03:08:15.858Z,87.99
2017-04-15T03:09:17.273Z,87.76
2017-04-15T03:10:18.620Z,88.09
2017-04-15T03:11:19.841Z,88.33
2017-04-15T03:12:21.068Z,88.18
2017-04-15T03:13:22.317Z,87.8
2017-04-15T03:14:23.555Z,88.09
2017-04-15T03:15:24.853Z,87.71
2017-04-15T03:16:26.088Z,87.61
2017-04-15T03:17:27.331Z,87.52
2017-04-15T03:18:28.589Z,87.71
2017-04-15T03:19:29.811Z,87.52
2017-04-15T03:20:31.312Z,87.71
2017-04-15T03:21:32.550Z,87.71
2017-04-15T03:22:33.800Z,87.9
2017-04-15T03:23:35.059Z,87.99
2017-04-15T03:24:36.303Z,87.71
2017-04-15T03:25:37.541Z,87.8
2017-04-15T03:26:38.825Z,88.09
2017-04-15T03:27:40.169Z,87.71
2017-04-15T03:28:41.384Z,87.71
2017-04-15T03:29:42.686Z,87.61
2017-04-15T03:30:43.924Z,87.13
2017-04-15T03:31:45.186Z,87.32
2017-04-15T03:32:46.429Z,86.66
2017-04-15T03:33:47.742Z,86.94
2017-04-15T03:34:49.007Z,87.13
2017-04-15T03:35:50.472Z,86.76
2017-04-15T03:36:51.699Z,87.13
2017-04-15T03:37:52.936Z,86.85
2017-04-15T03:38:54.185Z,86.85
2017-04-15T03:39:55.416Z,86.76
2017-04-15T03:40:56.750Z,86.57
2017-04-15T03:41:57.994Z,86.09
2017-04-15T03:42:59.262Z,86.28
2017-04-15T03:44:00.452Z,86.47
2017-04-15T03:45:01.682Z,86.28
2017-04-15T03:46:02.968Z,86.38
2017-04-15T03:47:04.314Z,86.47
2017-04-15T03:48:05.480Z,86.28
2017-04-15T03:49:06.738Z,85.99
2017-04-15T03:50:07.984Z,85.8
2017-04-15T03:51:09.222Z,85.42
2017-04-15T03:52:10.545Z,85.71
2017-04-15T03:53:11.787Z,85.61
2017-04-15T03:54:13.128Z,85.8
2017-04-15T03:55:14.614Z,85.24
2017-04-15T03:56:15.860Z,85.04
2017-04-15T03:57:17.091Z,84.66
2017-04-15T03:58:18.443Z,84.66
2017-04-15T03:59:19.666Z,84.66
2017-04-15T04:00:20.940Z,84.85
2017-04-15T04:01:22.177Z,85.04
2017-04-15T04:02:23.419Z,84.95
2017-04-15T04:03:24.824Z,84.47
2017-04-15T04:04:26.153Z,85.04
2017-04-15T04:05:27.357Z,85.33
2017-04-15T04:06:28.603Z,85.14
2017-04-15T04:07:29.851Z,85.04
2017-04-15T04:08:31.080Z,85.04
2017-04-15T04:09:32.328Z,84.85
2017-04-15T04:10:33.557Z,84.95
2017-04-15T04:11:34.788Z,85.33
2017-04-15T04:12:36.089Z,85.52
2017-04-15T04:13:37.336Z,85.61
2017-04-15T04:14:38.575Z,85.04
2017-04-15T04:15:39.818Z,84.95
2017-04-15T04:16:41.067Z,85.24
2017-04-15T04:17:42.314Z,85.33
2017-04-15T04:18:43.565Z,85.04
2017-04-15T04:19:44.832Z,85.61
2017-04-15T04:20:46.063Z,85.8
2017-04-15T04:21:47.302Z,85.52
2017-04-15T04:22:48.539Z,85.42
2017-04-15T04:23:49.932Z,85.52
2017-04-15T04:24:51.165Z,85.71
2017-04-15T04:25:52.399Z,85.99
2017-04-15T04:26:53.719Z,86.09
2017-04-15T04:27:54.937Z,85.71
2017-04-15T04:28:56.196Z,85.61
2017-04-15T04:29:57.435Z,86.18
2017-04-15T04:30:58.664Z,85.99
2017-04-15T04:31:59.916Z,86.09
2017-04-15T04:33:01.155Z,86.28
2017-04-15T04:34:02.399Z,86.28
2017-04-15T04:35:03.619Z,86.85
2017-04-15T04:36:04.929Z,86.76
2017-04-15T04:37:06.369Z,87.52
2017-04-15T04:38:07.700Z,87.32
2017-04-15T04:39:08.924Z,87.23
2017-04-15T04:40:10.167Z,87.8
2017-04-15T04:41:11.397Z,88.09
2017-04-15T04:42:12.636Z,87.8
2017-04-15T04:43:14.030Z,87.99
2017-04-15T04:44:15.151Z,87.71
2017-04-15T04:45:16.358Z,87.8
2017-04-15T04:46:17.593Z,87.99
2017-04-15T04:47:18.842Z,88.66
2017-04-15T04:48:20.079Z,88.18
2017-04-15T04:49:21.330Z,88.37
2017-04-15T04:50:22.663Z,88.37
2017-04-15T04:51:23.908Z,88.56
2017-04-15T04:52:25.168Z,88.75
2017-04-15T04:53:26.411Z,88.66
2017-04-15T04:54:27.647Z,89.23
2017-04-15T04:55:28.902Z,89.23
2017-04-15T04:56:30.156Z,89.23
2017-04-15T04:57:31.396Z,90.08
2017-04-15T04:58:32.735Z,90.28
2017-04-15T04:59:33.970Z,90.28
2017-04-15T05:00:35.217Z,90.37
2017-04-15T05:01:36.498Z,90.37
2017-04-15T05:02:38.011Z,90.37
2017-04-15T05:03:39.286Z,90.56
2017-04-15T05:04:40.555Z,90.47
2017-04-15T05:05:41.763Z,90.94
2017-04-15T05:06:43.025Z,90.94
2017-04-15T05:07:44.264Z,91.03
2017-04-15T05:08:45.490Z,90.94
2017-04-15T05:09:46.741Z,91.22
2017-04-15T05:10:47.982Z,91.42
2017-04-15T05:11:49.221Z,91.03
2017-04-15T05:12:50.459Z,91.51
2017-04-15T05:13:51.689Z,91.7
2017-04-15T05:14:52.954Z,91.89
2017-04-15T05:15:54.189Z,91.99
2017-04-15T05:16:55.530Z,91.7
2017-04-15T05:17:56.781Z,92.18
2017-04-15T05:18:57.996Z,92.18
2017-04-15T05:19:59.249Z,91.99
2017-04-15T05:21:00.503Z,92.27
2017-04-15T05:22:01.744Z,92.18
2017-04-15T05:23:03.007Z,92.08
2017-04-15T05:24:04.233Z,92.36
2017-04-15T05:25:05.468Z,92.18
2017-04-15T05:26:06.707Z,91.89
2017-04-15T05:27:08.044Z,91.42
2017-04-15T05:28:09.303Z,92.27
2017-04-15T05:29:10.592Z,92.08
2017-04-15T05:30:11.808Z,92.18
2017-04-15T05:31:13.044Z,92.75
2017-04-15T05:32:14.291Z,92.27
2017-04-15T05:33:15.532Z,92.27
2017-04-15T05:34:16.820Z,92.27
2017-04-15T05:35:18.127Z,92.56
2017-04-15T05:36:19.398Z,91.8
2017-04-15T05:37:20.577Z,92.65
2017-04-15T05:38:21.823Z,92.56
2017-04-15T05:39:23.085Z,92.56
2017-04-15T05:40:24.346Z,92.94
2017-04-15T05:41:25.583Z,92.94
2017-04-15T05:42:26.872Z,93.04
2017-04-15T05:43:28.117Z,93.13
2017-04-15T05:44:29.353Z,92.46
2017-04-15T05:45:30.609Z,92.46
2017-04-15T05:46:31.840Z,92.08
2017-04-15T05:47:33.289Z,92.84
2017-04-15T05:48:34.610Z,92.36
2017-04-15T05:49:35.850Z,92.27
2017-04-15T05:50:37.077Z,92.36
2017-04-15T05:51:38.335Z,91.99
2017-04-15T05:52:39.575Z,92.27
2017-04-15T05:53:40.917Z,92.36
2017-04-15T05:54:42.208Z,92.46
2017-04-15T05:55:43.435Z,91.99
2017-04-15T05:56:44.698Z,92.56
2017-04-15T05:57:46.043Z,92.18
2017-04-15T05:58:47.432Z,92.36
2017-04-15T05:59:48.756Z,92.65
2017-04-15T06:00:50.000Z,92.84
2017-04-15T06:01:51.250Z,92.56
2017-04-15T06:02:52.618Z,93.13
2017-04-15T06:03:53.896Z,92.94
2017-04-15T06:04:55.134Z,93.04
2017-04-15T06:05:56.393Z,92.94
2017-04-15T06:06:57.626Z,92.75
2017-04-15T06:07:58.899Z,92.84
2017-04-15T06:09:00.108Z,92.94
2017-04-15T06:10:01.429Z,93.41
2017-04-15T06:11:02.728Z,93.23
2017-04-15T06:12:03.977Z,93.04
2017-04-15T06:13:05.242Z,93.13
2017-04-15T06:14:06.467Z,93.13
2017-04-15T06:15:07.708Z,92.94
2017-04-15T06:16:08.955Z,93.32
2017-04-15T06:17:10.214Z,93.32
2017-04-15T06:18:11.489Z,93.23
2017-04-15T06:19:12.766Z,93.41
2017-04-15T06:20:14.006Z,93.23
2017-04-15T06:21:15.249Z,93.32
2017-04-15T06:22:16.546Z,92.65
2017-04-15T06:23:17.785Z,92.56
2017-04-15T06:24:19.115Z,92.84
2017-04-15T06:25:20.440Z,92.65
2017-04-15T06:26:21.676Z,92.65
2017-04-15T06:27:22.962Z,92.94
2017-04-15T06:28:24.271Z,92.56
2017-04-15T06:29:25.549Z,92.18
2017-04-15T06:30:26.909Z,92.36
2017-04-15T06:31:28.119Z,93.04
2017-04-15T06:32:29.384Z,92.56
2017-04-15T06:33:30.671Z,93.13
2017-04-15T06:34:32.327Z,92.75
2017-04-15T06:35:33.658Z,93.6
2017-04-15T06:36:34.870Z,93.32
2017-04-15T06:37:36.135Z,93.32
2017-04-15T06:38:37.386Z,93.23
2017-04-15T06:39:38.713Z,93.32
2017-04-15T06:40:40.035Z,93.41
2017-04-15T06:41:41.198Z,93.32
2017-04-15T06:42:42.436Z,93.32
2017-04-15T06:43:43.777Z,93.13
2017-04-15T06:44:44.994Z,93.23
2017-04-15T06:45:46.312Z,93.23
2017-04-15T06:46:47.470Z,93.23
2017-04-15T06:47:48.782Z,92.94
2017-04-15T06:48:50.044Z,92.94
2017-04-15T06:49:51.285Z,93.32
2017-04-15T06:50:52.545Z,93.41
2017-04-15T06:51:53.776Z,93.32
2017-04-15T06:52:55.042Z,93.04
2017-04-15T06:53:56.302Z,93.51
2017-04-15T06:54:57.605Z,93.32
2017-04-15T06:55:58.743Z,93.65
2017-04-15T06:56:59.992Z,93.37
2017-04-15T06:58:01.234Z,93.46
2017-04-15T06:59:02.726Z,93.37
2017-04-15T07:00:03.963Z,93.37
2017-04-15T07:01:05.206Z,93.46
2017-04-15T07:02:06.428Z,93.65
2017-04-15T07:03:07.676Z,93.55
2017-04-15T07:04:08.926Z,93.46
2017-04-15T07:05:10.187Z,93.65
2017-04-15T07:06:11.450Z,93.74
2017-04-15T07:07:12.768Z,94.03
2017-04-15T07:08:14.010Z,93.55
2017-04-15T07:09:15.252Z,93.94
2017-04-15T07:10:16.502Z,93.18
2017-04-15T07:11:17.736Z,93.27
2017-04-15T07:12:19.084Z,93.27
2017-04-15T07:13:20.308Z,93.27
2017-04-15T07:14:21.551Z,92.6
2017-04-15T07:15:22.785Z,92.6
2017-04-15T07:16:24.024Z,92.79
2017-04-15T07:17:25.255Z,92.7
2017-04-15T07:18:26.516Z,92.89
2017-04-15T07:19:27.849Z,92.7
2017-04-15T07:20:29.081Z,92.51
2017-04-15T07:21:30.355Z,92.51
2017-04-15T07:22:31.588Z,92.6
2017-04-15T07:23:32.918Z,92.51
2017-04-15T07:24:34.150Z,92.79
2017-04-15T07:25:35.388Z,92.6
2017-04-15T07:26:36.651Z,92.89
2017-04-15T07:27:37.879Z,92.79
2017-04-15T07:28:39.139Z,92.89
2017-04-15T07:29:40.454Z,92.51
2017-04-15T07:30:41.733Z,92.41
2017-04-15T07:31:43.026Z,92.79
2017-04-15T07:32:44.304Z,92.51
2017-04-15T07:33:45.523Z,92.99
2017-04-15T07:34:46.862Z,93.08
2017-04-15T07:35:48.106Z,93.27
2017-04-15T07:36:49.338Z,92.99
2017-04-15T07:37:50.631Z,92.51
2017-04-15T07:38:52.007Z,92.6
2017-04-15T07:39:53.221Z,92.79
2017-04-15T07:40:54.618Z,92.32
2017-04-15T07:41:55.852Z,92.51
2017-04-15T07:42:57.123Z,92.79
2017-04-15T07:43:58.464Z,92.7
2017-04-15T07:44:59.921Z,92.18
2017-04-15T07:46:01.131Z,91.6
2017-04-15T07:47:02.502Z,91.99
2017-04-15T07:48:03.634Z,91.7
2017-04-15T07:49:04.905Z,90.94
2017-04-15T07:50:06.189Z,90.84
2017-04-15T07:51:07.407Z,90.46
2017-04-15T07:52:08.664Z,90.36
2017-04-15T07:53:09.901Z,90.75
2017-04-15T07:54:11.138Z,91.03
2017-04-15T07:55:12.463Z,91.7
2017-04-15T07:56:13.696Z,91.41
2017-04-15T07:57:14.965Z,91.51
2017-04-15T07:58:16.210Z,91.03
2017-04-15T07:59:17.477Z,89.55
2017-04-15T08:00:18.742Z,89.36
2017-04-15T08:01:20.057Z,88.64
2017-04-15T08:02:21.305Z,87.79
2017-04-15T08:03:22.535Z,87.26
2017-04-15T08:04:23.789Z,85.54
2017-04-15T08:05:25.027Z,84.49
2017-04-15T08:06:26.297Z,83.67
2017-04-15T08:07:27.528Z,83.01
2017-04-15T08:08:28.788Z,81.62
2017-04-15T08:09:30.023Z,80.53
2017-04-15T08:10:31.269Z,80.28
2017-04-15T08:11:32.539Z,79.9
2017-04-15T08:12:33.771Z,79.43
2017-04-15T08:13:35.016Z,79.23
2017-04-15T08:14:36.401Z,78.66
2017-04-15T08:15:37.653Z,79.14
2017-04-15T08:16:38.894Z,78.28
2017-04-15T08:17:40.137Z,78.91
2017-04-15T08:18:41.378Z,79.28
2017-04-15T08:19:42.692Z,78.62
2017-04-15T08:20:43.905Z,78.81
2017-04-15T08:21:45.131Z,78.81
2017-04-15T08:22:46.371Z,78.62
2017-04-15T08:23:47.610Z,78.81
2017-04-15T08:24:48.847Z,78.72
2017-04-15T08:25:50.103Z,79.1
2017-04-15T08:26:51.527Z,78.72
2017-04-15T08:27:52.788Z,78.43
2017-04-15T08:28:54.015Z,78.33
2017-04-15T08:29:55.336Z,77.76
2017-04-15T08:30:56.603Z,77.95
2017-04-15T08:31:57.852Z,77.47
2017-04-15T08:32:59.072Z,77.09
2017-04-15T08:34:00.355Z,77
2017-04-15T08:35:01.583Z,77.42
2017-04-15T08:36:02.829Z,77.03
2017-04-15T08:37:04.053Z,77.32
2017-04-15T08:38:05.289Z,77.23
2017-04-15T08:39:06.540Z,76.18
2017-04-15T08:40:07.783Z,75.51
2017-04-15T08:41:09.151Z,75.45
2017-04-15T08:42:10.437Z,75.54
2017-04-15T08:43:11.673Z,75.07
2017-04-15T08:44:12.922Z,73.92
2017-04-15T08:45:14.174Z,73.39
2017-04-15T08:46:15.431Z,72.81
2017-04-15T08:47:16.673Z,71.22
2017-04-15T08:48:17.907Z,71.13
2017-04-15T08:49:19.176Z,70.07
2017-04-15T08:50:20.432Z,69.79
2017-04-15T08:51:21.666Z,69.6
2017-04-15T08:52:22.916Z,68.68
2017-04-15T08:53:24.264Z,68.77
2017-04-15T08:54:25.653Z,67.85
2017-04-15T08:55:26.780Z,66.61
2017-04-15T08:56:28.055Z,66.25
2017-04-15T08:57:29.320Z,66.74
2017-04-15T08:58:30.605Z,63.42
2017-04-15T08:59:31.872Z,62.62
2017-04-15T09:00:33.300Z,62.04
2017-04-15T09:01:34.548Z,63.1
2017-04-15T09:02:35.791Z,63.26
2017-04-15T09:03:37.040Z,62.97
2017-04-15T09:04:38.319Z,63.54
2017-04-15T09:05:39.556Z,64.5
2017-04-15T09:06:40.813Z,65.36
2017-04-15T09:07:42.078Z,64.02
2017-04-15T09:08:43.413Z,63.45
2017-04-15T09:09:44.672Z,63.16
2017-04-15T09:10:45.913Z,63.42
2017-04-15T09:11:47.161Z,63.6
2017-04-15T09:12:48.517Z,63.13
2017-04-15T09:13:49.757Z,63
2017-04-15T09:14:50.999Z,64.43
2017-04-15T09:15:52.243Z,64.53
2017-04-15T09:16:53.535Z,65.01
2017-04-15T09:17:54.820Z,63.45
2017-04-15T09:18:56.059Z,63.07
2017-04-15T09:19:57.292Z,63.64
2017-04-15T09:20:58.590Z,63.73
2017-04-15T09:21:59.850Z,64.22
2017-04-15T09:23:01.092Z,63.54
2017-04-15T09:24:02.450Z,64.31
2017-04-15T09:25:03.689Z,64.31
2017-04-15T09:26:04.949Z,63.45
2017-04-15T09:27:06.209Z,63.35
2017-04-15T09:28:07.439Z,63.83
2017-04-15T09:29:08.765Z,63.07
2017-04-15T09:30:10.017Z,63.07
2017-04-15T09:31:11.352Z,63.07
2017-04-15T09:32:12.632Z,63.35
2017-04-15T09:33:13.852Z,63.07
2017-04-15T09:34:15.109Z,62.68
2017-04-15T09:35:16.371Z,62.97
2017-04-15T09:36:17.619Z,63.35
2017-04-15T09:37:18.920Z,63.16
2017-04-15T09:38:20.184Z,63.35
2017-04-15T09:39:21.406Z,63.07
2017-04-15T09:40:22.648Z,62.87
2017-04-15T09:41:23.906Z,62.68
2017-04-15T09:42:25.159Z,61.98
2017-04-15T09:43:26.411Z,61.89
2017-04-15T09:44:27.753Z,62.18
2017-04-15T09:45:29.009Z,62.75
2017-04-15T09:46:30.239Z,63.23
2017-04-15T09:47:31.500Z,62.91
2017-04-15T09:48:32.777Z,63.48
2017-04-15T09:49:34.041Z,64.25
2017-04-15T09:50:35.327Z,65.01
2017-04-15T09:51:36.647Z,65.3
2017-04-15T09:52:37.893Z,66.06
2017-04-15T09:53:39.159Z,66.15
2017-04-15T09:54:40.535Z,65.58
2017-04-15T09:55:41.656Z,66.22
2017-04-15T09:56:42.940Z,66.31
2017-04-15T09:57:44.165Z,66.5
2017-04-15T09:58:45.413Z,66.5
2017-04-15T09:59:46.882Z,66.12
2017-04-15T10:00:48.206Z,66.88
2017-04-15T10:01:49.419Z,66.69
2017-04-15T10:02:50.668Z,66.75
2017-04-15T10:03:51.937Z,66.88
2017-04-15T10:04:53.150Z,66.09
2017-04-15T10:05:54.386Z,66.09
2017-04-15T10:06:55.738Z,66.09
2017-04-15T10:07:56.967Z,66.28
2017-04-15T10:08:58.343Z,65.8
2017-04-15T10:09:59.581Z,64.12
2017-04-15T10:11:00.850Z,63.8
2017-04-15T10:12:02.045Z,64.09
2017-04-15T10:13:03.293Z,64.21
2017-04-15T10:14:04.668Z,62.97
2017-04-15T10:15:05.910Z,63.16
2017-04-15T10:16:07.145Z,62.59
2017-04-15T10:17:08.384Z,61.13
2017-04-15T10:18:09.667Z,61.13
2017-04-15T10:19:10.983Z,59.51
2017-04-15T10:20:12.339Z,59.51
2017-04-15T10:21:13.566Z,59.22
2017-04-15T10:22:14.814Z,58.77
2017-04-15T10:23:16.040Z,58.97
2017-04-15T10:24:17.307Z,58.65
2017-04-15T10:25:18.596Z,58.01
2017-04-15T10:26:19.857Z,58.11
2017-04-15T10:27:21.106Z,57.72
2017-04-15T10:28:22.361Z,58.01
2017-04-15T10:29:23.603Z,57.46
2017-04-15T10:30:24.943Z,57.75
2017-04-15T10:31:26.184Z,58.14
2017-04-15T10:32:27.429Z,57.94
2017-04-15T10:33:28.747Z,58.14
2017-04-15T10:34:30.029Z,57.56
2017-04-15T10:35:31.388Z,58.42
2017-04-15T10:36:32.638Z,58.14
2017-04-15T10:37:33.898Z,58.23
2017-04-15T10:38:35.148Z,57.75
2017-04-15T10:39:36.441Z,58.42
2017-04-15T10:40:37.678Z,58.42
2017-04-15T10:41:38.919Z,57.56
2017-04-15T10:42:40.157Z,57.78
2017-04-15T10:43:41.493Z,57.4
2017-04-15T10:44:42.780Z,56.57
2017-04-15T10:45:44.014Z,56.38
2017-04-15T10:46:45.380Z,56.18
2017-04-15T10:47:46.607Z,55.9
2017-04-15T10:48:47.856Z,55.83
2017-04-15T10:49:49.169Z,55.07
2017-04-15T10:50:50.428Z,55.38
2017-04-15T10:51:51.709Z,53.75
2017-04-15T10:52:52.953Z,53.37
2017-04-15T10:53:54.189Z,53.11
2017-04-15T10:54:55.475Z,52.15
2017-04-15T10:55:56.726Z,51.77
2017-04-15T10:56:58.004Z,51.58
2017-04-15T10:57:59.233Z,50.62
2017-04-15T10:59:00.488Z,50.43
2017-04-15T11:00:01.734Z,51.42
2017-04-15T11:01:02.968Z,50.84
2017-04-15T11:02:04.201Z,50.36
2017-04-15T11:03:05.556Z,49.88
2017-04-15T11:04:06.822Z,49.4
2017-04-15T11:05:08.133Z,48.93
2017-04-15T11:06:09.378Z,48.83
2017-04-15T11:07:10.624Z,48.25
2017-04-15T11:08:11.873Z,48.25
2017-04-15T11:09:13.121Z,47.68
2017-04-15T11:10:14.493Z,48.44
2017-04-15T11:11:15.770Z,48.52
2017-04-15T11:12:17.048Z,49.76
2017-04-15T11:13:18.298Z,49
2017-04-15T11:14:19.549Z,49.76
2017-04-15T11:15:20.823Z,49.86
2017-04-15T11:16:22.053Z,50.02
2017-04-15T11:17:23.297Z,49.07
2017-04-15T11:18:24.572Z,49.74
2017-04-15T11:19:25.811Z,49.55
2017-04-15T11:20:27.050Z,49.93
2017-04-15T11:21:28.365Z,49.07
2017-04-15T11:22:29.600Z,50.02
2017-04-15T11:23:30.853Z,49.8
2017-04-15T11:24:32.089Z,50.41
2017-04-15T11:25:33.333Z,49.9
2017-04-15T11:26:34.572Z,49.8
2017-04-15T11:27:35.806Z,49.14
2017-04-15T11:28:37.057Z,49.23
2017-04-15T11:29:38.295Z,49.43
2017-04-15T11:30:39.546Z,49.33
2017-04-15T11:31:40.815Z,49.14
2017-04-15T11:32:42.058Z,48.57
2017-04-15T11:33:43.382Z,48.75
2017-04-15T11:34:44.599Z,48.75
2017-04-15T11:35:45.956Z,49.04
2017-04-15T11:36:47.112Z,48.83
2017-04-15T11:37:48.337Z,48.54
2017-04-15T11:38:49.584Z,48.64
2017-04-15T11:39:50.975Z,48.83
2017-04-15T11:40:52.367Z,48.54
2017-04-15T11:41:53.581Z,47.39
2017-04-15T11:42:54.844Z,47.68
2017-04-15T11:43:56.089Z,47.11
2017-04-15T11:44:57.343Z,47.11
2017-04-15T11:45:58.677Z,47.42
2017-04-15T11:46:59.896Z,47.13
2017-04-15T11:48:01.272Z,46.94
2017-04-15T11:49:02.513Z,46.1
2017-04-15T11:50:03.757Z,46.2
2017-04-15T11:51:05.174Z,45.81
2017-04-15T11:52:06.605Z,44.76
2017-04-15T11:53:07.884Z,43.52
2017-04-15T11:54:09.110Z,43.52
2017-04-15T11:55:10.377Z,45.05
2017-04-15T11:56:11.636Z,44.95
2017-04-15T11:57:13.026Z,44.67
2017-04-15T11:58:14.346Z,44.57
2017-04-15T11:59:15.583Z,44
2017-04-15T12:00:16.827Z,45.05
2017-04-15T12:01:18.096Z,45.05
2017-04-15T12:02:19.296Z,44.79
2017-04-15T12:03:20.713Z,43.63
2017-04-15T12:04:21.885Z,44.21
2017-04-15T12:05:23.155Z,44.19
2017-04-15T12:06:24.422Z,43.9
2017-04-15T12:07:25.643Z,45.15
2017-04-15T12:08:26.944Z,45.12
2017-04-15T12:09:28.187Z,46.17
2017-04-15T12:10:29.494Z,47.52
2017-04-15T12:11:30.758Z,48.18
2017-04-15T12:12:32.142Z,48.35
2017-04-15T12:13:33.392Z,49.49
2017-04-15T12:14:34.630Z,50.35
2017-04-15T12:15:35.867Z,51.67
2017-04-15T12:16:37.112Z,52.43
2017-04-15T12:17:38.427Z,51.95
2017-04-15T12:18:39.666Z,52.62
2017-04-15T12:19:40.923Z,52.53
2017-04-15T12:20:42.178Z,52.24
2017-04-15T12:21:43.447Z,52.08
2017-04-15T12:22:44.820Z,51.34
2017-04-15T12:23:46.089Z,50
2017-04-15T12:24:47.371Z,49.43
2017-04-15T12:25:48.591Z,49.55
2017-04-15T12:26:49.846Z,48.88
2017-04-15T12:27:51.219Z,48.11
2017-04-15T12:28:52.536Z,46.41
2017-04-15T12:29:53.884Z,45.17
2017-04-15T12:30:55.122Z,44.5
2017-04-15T12:31:56.373Z,44.59
2017-04-15T12:32:57.611Z,43.83
2017-04-15T12:33:58.891Z,44.4
2017-04-15T12:35:00.151Z,44.31
2017-04-15T12:36:01.397Z,44.13
2017-04-15T12:37:02.636Z,43.66
2017-04-15T12:38:03.878Z,43.66
2017-04-15T12:39:05.124Z,44.16
2017-04-15T12:40:06.393Z,43.2
2017-04-15T12:41:07.698Z,41.74
2017-04-15T12:42:09.053Z,40.98
2017-04-15T12:43:10.292Z,40.59
2017-04-15T12:44:11.535Z,40.59
2017-04-15T12:45:12.791Z,40.88
2017-04-15T12:46:14.040Z,40.31
2017-04-15T12:47:15.297Z,40.69
2017-04-15T12:48:16.559Z,39.54
2017-04-15T12:49:17.798Z,40.5
2017-04-15T12:50:19.068Z,40.58
2017-04-15T12:51:20.323Z,40.86
2017-04-15T12:52:21.657Z,41.05
2017-04-15T12:53:22.974Z,41.34
2017-04-15T12:54:24.334Z,41.24
2017-04-15T12:55:25.597Z,41.53
2017-04-15T12:56:26.826Z,41.05
2017-04-15T12:57:28.296Z,40.86
2017-04-15T12:58:29.617Z,41.74
2017-04-15T12:59:30.849Z,40.78
2017-04-15T13:00:32.229Z,41.17
2017-04-15T13:01:33.478Z,40.69
2017-04-15T13:02:34.751Z,40.5
2017-04-15T13:03:36.007Z,40.88
2017-04-15T13:04:37.268Z,40.5
2017-04-15T13:05:38.573Z,40.5
2017-04-15T13:06:39.810Z,39.54
2017-04-15T13:07:41.089Z,39.16
2017-04-15T13:08:42.334Z,39.35
2017-04-15T13:09:43.638Z,40.41
2017-04-15T13:10:44.918Z,39.64
2017-04-15T13:11:46.319Z,38.59